Terminal Aerodrome Forecast
Issued by NWS Cleveland, OH

Home | Current Version | Previous Version | Text Only | Print | Product List | Glossary Off
Versions: 1 2 3 4 5 6 7 8 9 10 11 12 13 14 15 16 17 18

000
FTUS41 KCLE 252342
TAFERI
TAF
KERI 252342Z 2600/2624 24010G20KT P6SM VCTS SCT040CB BKN100
     FM260300 24008KT P6SM SCT100
     FM260800 27006KT P6SM SCT100
     FM261400 30008KT P6SM SCT250=

USA.gov is the U.S. government's official web portal to all federal, state and local government web resources and services.